USCGC Polar Star — NBTM — position and weather

sailwx.info

Track history (hours):
 
Tides and Currents Weather Stations Pressure Air Temp Water Temp Dewpoint Dewpoint Depression Visibility Wind Speed Wind Dir Waves Ship Positions

Oceanographic research ship USCGC Polar Star (USA)

Detailed information on ship capabilities available from University of Delaware's Ocean Information Center and ARCUS's ALIAS (Arctic Logistics Information and Support) project.

Last reported at 2016-Dec-02 17:31 UTC. Time now 2016-Dec-03 19:40 UTC.
Position N 48°15' W 125°43'.

Type: Military. MMSI: 367255000.

Date/timePositionNaut miles runAvg speedWind from/ knotsBaromVisibWave heightAir tempDewpointWater temp
2016-Dec-02 17:31N 48°15' W 125°43'1313.8
2016-Dec-02 16:33N 48°23' W 125°27'1313.2
2016-Dec-02 15:33N 48°30' W 125°11'1413.4
2016-Dec-02 14:33N 48°32' W 124°50'1414.1
2016-Dec-02 13:33N 48°27' W 124°31'1514.7
2016-Dec-02 12:33N 48°21' W 124°10'1313.0
2016-Dec-02 11:33N 48°17' W 123°52'1110.9
2016-Dec-02 10:33N 48°16' W 123°35'5 5.0
2016-Dec-02 09:33N 48°16' W 123°28'5 4.7
2016-Dec-02 08:33N 48°14' W 123°21'6 6.3
2016-Dec-02 07:33N 48°13' W 123°12'2 1.7
2016-Dec-02 06:33N 48°13' W 123°09'3 2.9
2016-Dec-02 05:23N 48°13' W 123°04'5 6.4
2016-Dec-02 04:31N 48°13' W 122°56'19 6.3
2016-Dec-02 01:30N 47°60' W 122°36'1213.1
2016-Dec-02 00:34N 47°49' W 122°27'1110.7
2016-Dec-01 23:33N 47°38' W 122°26'1 0.6
2016-Dec-01 22:33N 47°38' W 122°25'3 3.4
2016-Dec-01 21:33N 47°36' W 122°21'1 0.7
2016-Dec-01 20:32N 47°35' W 122°21'0 0.0
2016-Dec-01 19:28N 47°35' W 122°21'0 0.0
2016-Dec-01 18:32N 47°35' W 122°21'0 0.0
2016-Dec-01 17:32N 47°35' W 122°21'0 0.0
2016-Dec-01 16:31N 47°35' W 122°21'0 0.0
2016-Dec-01 15:31N 47°35' W 122°21'0 0.0
2016-Dec-01 14:31N 47°35' W 122°21'0 0.0
2016-Dec-01 13:32N 47°35' W 122°21'0 0.0
2016-Dec-01 12:32N 47°35' W 122°21'0 0.0
2016-Dec-01 11:32N 47°35' W 122°21'0 0.0
2016-Dec-01 10:31N 47°35' W 122°21'0 0.0
2016-Dec-01 09:32N 47°35' W 122°21'0 0.0
2016-Dec-01 08:32N 47°35' W 122°21'0 0.0
2016-Dec-01 07:31N 47°35' W 122°21'0 0.0
2016-Dec-01 06:28N 47°35' W 122°21'0 0.0
2016-Dec-01 05:32N 47°35' W 122°21'0 0.0
2016-Dec-01 04:32N 47°35' W 122°21'0 0.0
2016-Dec-01 03:32N 47°35' W 122°21'0 0.0
2016-Dec-01 02:31N 47°35' W 122°21'0 0.0
2016-Dec-01 01:28N 47°35' W 122°21'0 0.0
2016-Nov-29 01:32N 47°35' W 122°21'1 1.3
2016-Nov-29 00:33N 47°36' W 122°22'5 5.1
2016-Nov-28 23:33N 47°39' W 122°28'0 0.1
2016-Nov-28 22:33N 47°39' W 122°28'4 4.2
2016-Nov-28 21:33N 47°43' W 122°27'4 3.8
2016-Nov-28 20:33N 47°40' W 122°27'6 5.8
2016-Nov-28 19:33N 47°36' W 122°21'0 0.3
2016-Nov-28 18:31N 47°35' W 122°21'0 0.0
2016-Nov-28 17:22N 47°35' W 122°21'0 0.0
2016-Nov-28 16:28N 47°35' W 122°21'  
Track history (hours):
 
Tides and Currents Weather Stations Pressure Air Temp Water Temp Dewpoint Dewpoint Depression Visibility Wind Speed Wind Dir Waves Ship Positions

Oceanographic research ship USCGC Polar Star (USA)

Detailed information on ship capabilities available from University of Delaware's Ocean Information Center and ARCUS's ALIAS (Arctic Logistics Information and Support) project.

Last reported at 2016-Dec-02 17:31 UTC. Time now 2016-Dec-03 19:40 UTC.
Position N 48°15' W 125°43'.

Type: Military. MMSI: 367255000.

Date/timePositionNaut miles runAvg speedWind from/ knotsBaromVisibWave heightAir tempDewpointWater temp
2016-Dec-02 17:31N 48°15' W 125°43'1313.8
2016-Dec-02 16:33N 48°23' W 125°27'1313.2
2016-Dec-02 15:33N 48°30' W 125°11'1413.4
2016-Dec-02 14:33N 48°32' W 124°50'1414.1
2016-Dec-02 13:33N 48°27' W 124°31'1514.7
2016-Dec-02 12:33N 48°21' W 124°10'1313.0
2016-Dec-02 11:33N 48°17' W 123°52'1110.9
2016-Dec-02 10:33N 48°16' W 123°35'5 5.0
2016-Dec-02 09:33N 48°16' W 123°28'5 4.7
2016-Dec-02 08:33N 48°14' W 123°21'6 6.3
2016-Dec-02 07:33N 48°13' W 123°12'2 1.7
2016-Dec-02 06:33N 48°13' W 123°09'3 2.9
2016-Dec-02 05:23N 48°13' W 123°04'5 6.4
2016-Dec-02 04:31N 48°13' W 122°56'19 6.3
2016-Dec-02 01:30N 47°60' W 122°36'1213.1
2016-Dec-02 00:34N 47°49' W 122°27'1110.7
2016-Dec-01 23:33N 47°38' W 122°26'1 0.6
2016-Dec-01 22:33N 47°38' W 122°25'3 3.4
2016-Dec-01 21:33N 47°36' W 122°21'1 0.7
2016-Dec-01 20:32N 47°35' W 122°21'0 0.0
2016-Dec-01 19:28N 47°35' W 122°21'0 0.0
2016-Dec-01 18:32N 47°35' W 122°21'0 0.0
2016-Dec-01 17:32N 47°35' W 122°21'0 0.0
2016-Dec-01 16:31N 47°35' W 122°21'0 0.0
2016-Dec-01 15:31N 47°35' W 122°21'0 0.0
2016-Dec-01 14:31N 47°35' W 122°21'0 0.0
2016-Dec-01 13:32N 47°35' W 122°21'0 0.0
2016-Dec-01 12:32N 47°35' W 122°21'0 0.0
2016-Dec-01 11:32N 47°35' W 122°21'0 0.0
2016-Dec-01 10:31N 47°35' W 122°21'0 0.0
2016-Dec-01 09:32N 47°35' W 122°21'0 0.0
2016-Dec-01 08:32N 47°35' W 122°21'0 0.0
2016-Dec-01 07:31N 47°35' W 122°21'0 0.0
2016-Dec-01 06:28N 47°35' W 122°21'0 0.0
2016-Dec-01 05:32N 47°35' W 122°21'0 0.0
2016-Dec-01 04:32N 47°35' W 122°21'0 0.0
2016-Dec-01 03:32N 47°35' W 122°21'0 0.0
2016-Dec-01 02:31N 47°35' W 122°21'0 0.0
2016-Dec-01 01:28N 47°35' W 122°21'0 0.0
2016-Nov-29 01:32N 47°35' W 122°21'1 1.3
2016-Nov-29 00:33N 47°36' W 122°22'5 5.1
2016-Nov-28 23:33N 47°39' W 122°28'0 0.1
2016-Nov-28 22:33N 47°39' W 122°28'4 4.2
2016-Nov-28 21:33N 47°43' W 122°27'4 3.8
2016-Nov-28 20:33N 47°40' W 122°27'6 5.8
2016-Nov-28 19:33N 47°36' W 122°21'0 0.3
2016-Nov-28 18:31N 47°35' W 122°21'0 0.0
2016-Nov-28 17:22N 47°35' W 122°21'0 0.0
2016-Nov-28 16:28N 47°35' W 122°21'  

Dump ship's entire track history